Time;durP1;ratioP1;P1;durP2;ratioP2;P2;SDS_P1;SDS_P2;PMS_P1;PMS_P2;Temp;Humidity;BMP_temperature;BMP_pressure;BME280_temperature;BME280_humidity;BME280_pressure;Samples;Min_cycle;Max_cycle;Signal;HPM_P1;HPM_P2
2021/11/14 00:20:16;;;;;;;153.13;49.60;;;9.70;99.90;;;;;;4812516;27;20466;-87
2021/11/14 00:22:42;;;;;;;141.35;49.80;;;9.70;99.90;;;;;;4781727;29;20050;-86
2021/11/14 00:25:13;;;;;;;181.85;52.92;;;9.70;99.90;;;;;;4765196;29;20049;-87
2021/11/14 00:27:39;;;;;;;180.48;51.65;;;9.70;99.90;;;;;;4776647;29;20045;-86
2021/11/14 00:30:06;;;;;;;175.02;53.53;;;9.70;99.90;;;;;;4778903;29;20478;-87
2021/11/14 00:32:31;;;;;;;186.77;52.47;;;9.70;99.90;;;;;;4787605;29;20494;-86
2021/11/14 00:34:58;;;;;;;149.50;51.25;;;9.70;99.90;;;;;;4753144;29;20062;-86
2021/11/14 00:37:24;;;;;;;164.88;50.28;;;9.70;99.90;;;;;;4763670;29;20054;-85
2021/11/14 00:39:49;;;;;;;167.10;50.17;;;9.70;99.90;;;;;;4769656;29;20086;-88
2021/11/14 00:42:15;;;;;;;181.48;51.20;;;9.70;99.90;;;;;;4762145;29;20046;-84
2021/11/14 00:44:41;;;;;;;138.65;47.90;;;9.70;99.90;;;;;;4773988;29;20038;-85
2021/11/14 00:47:07;;;;;;;163.38;50.22;;;9.70;99.90;;;;;;4754036;29;20478;-86
2021/11/14 00:49:35;;;;;;;139.07;47.00;;;9.70;99.90;;;;;;4788911;29;20042;-85
2021/11/14 00:52:01;;;;;;;189.18;52.35;;;9.70;99.90;;;;;;4761309;29;20082;-86
2021/11/14 00:54:27;;;;;;;160.90;50.55;;;9.70;99.90;;;;;;4761376;29;20050;-84
2021/11/14 00:56:52;;;;;;;155.27;48.38;;;9.70;99.90;;;;;;4769569;29;20057;-86
2021/11/14 00:59:18;;;;;;;150.15;47.63;;;9.70;99.90;;;;;;4762949;29;20107;-85
2021/11/14 01:01:44;;;;;;;155.43;48.17;;;9.70;99.90;;;;;;4764782;29;20096;-86
2021/11/14 01:04:10;;;;;;;149.15;47.63;;;9.70;99.90;;;;;;4749439;29;20050;-87
2021/11/14 01:06:36;;;;;;;157.50;48.50;;;9.70;99.90;;;;;;4761292;29;20046;-85
2021/11/14 01:09:02;;;;;;;163.00;49.95;;;9.70;99.90;;;;;;4769669;29;20042;-87
2021/11/14 01:11:28;;;;;;;154.35;49.05;;;9.70;99.90;;;;;;4786114;29;20461;-86
2021/11/14 01:13:54;;;;;;;184.02;50.45;;;9.80;99.90;;;;;;4770742;29;20049;-86
2021/11/14 01:16:22;;;;;;;156.27;49.45;;;9.70;99.90;;;;;;4783968;29;20046;-85
2021/11/14 01:18:47;;;;;;;137.23;47.17;;;9.70;99.90;;;;;;4790600;29;20050;-85
2021/11/14 01:21:16;;;;;;;143.10;48.13;;;9.70;99.90;;;;;;4776927;29;21769;-85
2021/11/14 01:23:43;;;;;;;146.77;47.05;;;9.70;99.90;;;;;;4757964;29;20446;-87
2021/11/14 01:26:09;;;;;;;143.00;47.30;;;9.70;99.90;;;;;;4780113;29;20038;-87
2021/11/14 01:28:35;;;;;;;145.25;46.17;;;9.70;99.90;;;;;;4762788;29;20042;-85
2021/11/14 01:31:01;;;;;;;142.07;46.55;;;9.70;99.90;;;;;;4782597;29;20616;-86
2021/11/14 01:33:28;;;;;;;138.07;46.55;;;9.70;99.90;;;;;;4792010;29;20129;-86
2021/11/14 01:35:56;;;;;;;141.75;46.45;;;9.70;99.90;;;;;;4784768;29;20504;-87
2021/11/14 01:38:24;;;;;;;116.53;42.10;;;9.70;99.90;;;;;;4786213;29;20051;-87
2021/11/14 01:40:59;;;;;;;117.53;44.95;;;9.70;99.90;;;;;;4769664;29;20042;-86
2021/11/14 01:43:32;;;;;;;108.35;42.30;;;9.70;99.90;;;;;;4786810;29;20058;-87
2021/11/14 01:45:59;;;;;;;106.03;42.10;;;9.70;99.90;;;;;;4785781;29;20042;-86
2021/11/14 01:48:25;;;;;;;96.88;40.47;;;9.70;99.90;;;;;;4773262;29;20074;-85
2021/11/14 01:50:50;;;;;;;95.13;39.33;;;9.70;99.90;;;;;;4780262;29;20050;-87
2021/11/14 01:53:17;;;;;;;89.88;40.05;;;9.70;99.90;;;;;;4796871;29;21872;-86
2021/11/14 01:55:44;;;;;;;97.13;40.92;;;9.70;99.90;;;;;;4769081;29;20050;-86
2021/11/14 01:58:13;;;;;;;90.32;37.15;;;9.70;99.90;;;;;;4791801;29;20042;-87
2021/11/14 02:00:50;;;;;;;104.68;40.83;;;9.70;99.90;;;;;;4794418;29;20042;-87
2021/11/14 02:03:16;;;;;;;102.35;41.80;;;9.70;99.90;;;;;;4784046;29;20109;-87
2021/11/14 02:05:43;;;;;;;98.57;41.15;;;9.70;99.90;;;;;;4780709;29;20035;-86
2021/11/14 02:08:09;;;;;;;100.60;40.72;;;9.70;99.90;;;;;;4772878;29;20046;-88
2021/11/14 02:10:37;;;;;;;114.82;43.72;;;9.70;99.90;;;;;;4766153;29;20069;-86
2021/11/14 02:13:04;;;;;;;106.30;41.78;;;9.70;99.90;;;;;;4783389;29;20037;-86
2021/11/14 02:15:30;;;;;;;97.10;40.85;;;9.60;99.90;;;;;;4769002;29;20334;-85
2021/11/14 02:17:56;;;;;;;106.43;42.17;;;9.70;99.90;;;;;;4779009;29;20057;-85
2021/11/14 02:20:22;;;;;;;99.05;43.42;;;9.60;99.90;;;;;;4798131;29;20070;-85
2021/11/14 02:22:49;;;;;;;88.85;40.72;;;9.60;99.90;;;;;;4770866;29;20518;-84
2021/11/14 02:25:17;;;;;;;81.47;38.38;;;9.60;99.90;;;;;;4765207;29;20483;-84
2021/11/14 02:27:44;;;;;;;79.47;38.50;;;9.60;99.90;;;;;;4784662;29;20613;-84
2021/11/14 02:30:13;;;;;;;77.40;39.72;;;9.60;99.90;;;;;;4764871;29;20049;-87
2021/11/14 02:32:39;;;;;;;78.10;39.03;;;9.50;99.90;;;;;;4789367;29;20043;-85
2021/11/14 02:35:06;;;;;;;81.72;39.17;;;9.60;99.90;;;;;;4770326;29;20137;-85
2021/11/14 02:37:33;;;;;;;76.53;37.95;;;9.50;99.90;;;;;;4784803;29;20078;-85
2021/11/14 02:39:59;;;;;;;84.72;38.60;;;9.50;99.90;;;;;;4785511;29;21767;-85
2021/11/14 02:42:24;;;;;;;85.57;39.90;;;9.50;99.90;;;;;;4794624;29;20047;-85
2021/11/14 02:44:50;;;;;;;92.43;41.17;;;9.50;99.90;;;;;;4783759;29;20567;-85
2021/11/14 02:47:16;;;;;;;86.60;39.58;;;9.50;99.90;;;;;;4799406;29;20082;-87
2021/11/14 02:49:42;;;;;;;88.10;39.70;;;9.40;99.90;;;;;;4767355;29;20038;-86
2021/11/14 02:52:08;;;;;;;112.43;41.47;;;9.40;99.90;;;;;;4754794;29;20098;-85
2021/11/14 02:54:34;;;;;;;81.05;38.75;;;9.40;99.90;;;;;;4745897;29;20143;-84
2021/11/14 02:57:00;;;;;;;78.13;37.70;;;9.40;99.90;;;;;;4782115;29;20054;-86
2021/11/14 02:59:26;;;;;;;84.95;36.22;;;9.40;99.90;;;;;;4756028;29;20081;-84
2021/11/14 03:01:54;;;;;;;89.18;37.60;;;9.40;99.90;;;;;;4773894;29;20048;-86
2021/11/14 03:04:25;;;;;;;86.38;35.83;;;9.40;99.90;;;;;;4765744;29;20581;-85
2021/11/14 03:06:53;;;;;;;94.68;37.58;;;9.30;99.90;;;;;;4797674;29;20046;-84
2021/11/14 03:09:19;;;;;;;96.15;38.15;;;9.40;99.90;;;;;;4772511;29;20066;-85
2021/11/14 03:11:46;;;;;;;91.72;37.38;;;9.30;99.90;;;;;;4796570;29;20078;-85
2021/11/14 03:14:12;;;;;;;92.28;37.22;;;9.30;99.90;;;;;;4769955;29;20046;-86
2021/11/14 03:16:38;;;;;;;98.88;37.70;;;9.30;99.90;;;;;;4787771;29;20054;-85
2021/11/14 03:19:05;;;;;;;102.90;37.67;;;9.30;99.90;;;;;;4773337;29;20179;-86
2021/11/14 03:21:30;;;;;;;105.15;39.83;;;9.30;99.90;;;;;;4791097;29;20106;-86
2021/11/14 03:23:57;;;;;;;100.07;38.25;;;9.30;99.90;;;;;;4773153;29;20046;-86
2021/11/14 03:26:24;;;;;;;108.63;39.53;;;9.30;99.90;;;;;;4773790;29;20038;-86
2021/11/14 03:28:50;;;;;;;108.30;39.65;;;9.30;99.90;;;;;;4765769;29;20038;-85
2021/11/14 03:31:16;;;;;;;110.40;38.45;;;9.30;99.90;;;;;;4793051;29;20054;-86
2021/11/14 03:33:43;;;;;;;134.07;42.75;;;9.30;99.90;;;;;;4782217;29;20382;-85
2021/11/14 03:36:11;;;;;;;123.82;40.10;;;9.20;99.90;;;;;;4785671;29;20043;-85
2021/11/14 03:38:46;;;;;;;129.07;42.95;;;9.20;99.90;;;;;;4789203;29;20061;-85
2021/11/14 03:41:17;;;;;;;109.30;39.67;;;9.20;99.90;;;;;;4800285;29;20050;-85
2021/11/14 03:43:43;;;;;;;120.60;42.40;;;9.20;99.90;;;;;;4796188;29;20039;-85
2021/11/14 03:46:10;;;;;;;104.93;39.55;;;9.20;99.90;;;;;;4769723;29;20050;-85
2021/11/14 03:48:38;;;;;;;111.25;40.58;;;9.20;99.90;;;;;;4784474;29;20128;-85
2021/11/14 03:51:05;;;;;;;118.60;40.85;;;9.20;99.90;;;;;;4781708;29;20059;-86
2021/11/14 03:53:32;;;;;;;122.60;41.10;;;9.20;99.90;;;;;;4788670;29;20042;-87
2021/11/14 03:55:58;;;;;;;122.95;40.67;;;9.20;99.90;;;;;;4789396;29;20260;-85
2021/11/14 03:58:24;;;;;;;109.03;38.92;;;9.10;99.90;;;;;;4776491;29;20050;-85
2021/11/14 04:00:54;;;;;;;102.68;38.70;;;9.10;99.90;;;;;;4777041;29;20043;-85
2021/11/14 04:03:20;;;;;;;116.28;40.63;;;9.10;99.90;;;;;;4806265;29;20039;-85
2021/11/14 04:05:47;;;;;;;113.97;41.15;;;9.10;99.90;;;;;;4795386;29;20192;-84
2021/11/14 04:08:20;;;;;;;102.40;37.78;;;9.10;99.90;;;;;;4795907;29;20046;-85
2021/11/14 04:10:48;;;;;;;103.53;36.83;;;9.10;99.90;;;;;;4787843;29;20118;-85
2021/11/14 04:13:15;;;;;;;96.10;36.45;;;9.10;99.90;;;;;;4804699;29;20034;-86
2021/11/14 04:15:42;;;;;;;111.35;38.67;;;9.10;99.90;;;;;;4782942;29;20061;-85
2021/11/14 04:18:08;;;;;;;91.88;34.40;;;9.10;99.90;;;;;;4783904;29;20406;-85
2021/11/14 04:20:36;;;;;;;88.57;34.97;;;9.10;99.90;;;;;;4774706;29;20049;-86
2021/11/14 04:23:03;;;;;;;102.22;36.90;;;9.10;99.90;;;;;;4797562;29;20130;-85
2021/11/14 04:25:29;;;;;;;106.80;38.00;;;9.10;99.90;;;;;;4773100;29;20038;-86
2021/11/14 04:27:56;;;;;;;87.82;34.17;;;9.00;99.90;;;;;;4784929;29;20502;-84
2021/11/14 04:30:23;;;;;;;87.50;34.47;;;9.10;99.90;;;;;;4758526;29;20044;-87
2021/11/14 04:32:50;;;;;;;82.53;34.40;;;9.10;99.90;;;;;;4771280;29;20050;-86
2021/11/14 04:35:16;;;;;;;82.13;33.50;;;9.10;99.90;;;;;;4799845;29;20429;-86
2021/11/14 04:37:42;;;;;;;91.38;34.70;;;9.10;99.90;;;;;;4787833;29;20050;-86
2021/11/14 04:40:09;;;;;;;85.53;36.08;;;9.10;99.90;;;;;;4781325;29;20510;-84
2021/11/14 04:42:36;;;;;;;88.65;35.33;;;9.10;99.90;;;;;;4785872;29;20059;-86
2021/11/14 04:45:04;;;;;;;83.80;35.00;;;9.10;99.90;;;;;;4766379;29;20130;-87
2021/11/14 04:47:29;;;;;;;81.88;32.72;;;9.10;99.90;;;;;;4771937;29;20501;-87
2021/11/14 04:49:55;;;;;;;96.88;35.60;;;9.10;99.90;;;;;;4769943;29;20041;-87
2021/11/14 04:52:21;;;;;;;94.53;35.15;;;9.10;99.90;;;;;;4798060;29;20053;-87
2021/11/14 04:54:47;;;;;;;104.05;36.15;;;9.10;99.90;;;;;;4795176;29;20408;-86
2021/11/14 04:57:13;;;;;;;94.00;34.50;;;9.10;99.90;;;;;;4763152;29;20143;-86
2021/11/14 04:59:39;;;;;;;107.68;36.03;;;9.10;99.90;;;;;;4780284;29;20149;-87
2021/11/14 05:02:05;;;;;;;83.38;32.90;;;9.10;99.90;;;;;;4774867;29;20041;-87
2021/11/14 05:04:30;;;;;;;90.75;34.35;;;9.10;99.90;;;;;;4783616;29;20125;-86
2021/11/14 05:06:56;;;;;;;91.50;33.65;;;9.10;99.90;;;;;;4780650;29;20094;-87
2021/11/14 05:09:22;;;;;;;84.97;33.13;;;9.10;99.90;;;;;;4787337;29;20047;-87
2021/11/14 05:11:48;;;;;;;88.40;34.03;;;9.10;99.90;;;;;;4784883;29;20554;-85
2021/11/14 05:14:14;;;;;;;98.82;34.92;;;9.10;99.90;;;;;;4770697;29;20518;-86
2021/11/14 05:16:39;;;;;;;89.13;34.17;;;9.00;99.90;;;;;;4769651;29;20148;-87
2021/11/14 05:19:05;;;;;;;85.78;33.30;;;9.00;99.90;;;;;;4769841;29;20413;-86
2021/11/14 05:21:31;;;;;;;84.80;35.40;;;9.10;99.90;;;;;;4769539;29;20069;-84
2021/11/14 05:23:57;;;;;;;93.82;35.63;;;9.00;99.90;;;;;;4764490;29;20039;-84
2021/11/14 05:26:22;;;;;;;100.57;36.50;;;9.00;99.90;;;;;;4760396;29;20046;-85
2021/11/14 05:28:48;;;;;;;96.75;36.75;;;9.00;99.90;;;;;;4783251;29;20049;-86
2021/11/14 05:31:14;;;;;;;99.95;36.05;;;9.00;99.90;;;;;;4776274;29;20046;-85
2021/11/14 05:33:40;;;;;;;101.68;37.20;;;9.00;99.90;;;;;;4776908;29;20050;-86
2021/11/14 05:36:07;;;;;;;101.28;35.75;;;9.00;99.90;;;;;;4790644;29;20066;-85
2021/11/14 05:38:33;;;;;;;100.68;36.63;;;9.00;99.90;;;;;;4784745;29;20043;-86
2021/11/14 05:40:58;;;;;;;98.22;36.63;;;9.10;99.90;;;;;;4768725;29;20313;-86
2021/11/14 05:43:24;;;;;;;97.47;35.83;;;9.00;99.90;;;;;;4789215;29;20585;-86
2021/11/14 05:45:50;;;;;;;97.00;36.80;;;9.00;99.90;;;;;;4770550;29;20506;-86
2021/11/14 05:48:16;;;;;;;94.65;36.13;;;9.00;99.90;;;;;;4770495;29;20515;-84
2021/11/14 05:50:42;;;;;;;102.10;35.33;;;9.00;99.90;;;;;;4777482;29;20035;-87
2021/11/14 05:53:09;;;;;;;116.30;37.72;;;9.00;99.90;;;;;;4767168;29;20045;-86
2021/11/14 05:55:35;;;;;;;97.25;35.20;;;9.00;99.90;;;;;;4767911;29;20046;-86
2021/11/14 06:00:38;;;;;;;94.00;34.72;;;9.00;99.90;;;;;;4778732;29;20038;-85
2021/11/14 06:03:18;;;;;;;85.93;32.40;;;9.00;99.90;;;;;;4798776;29;20046;-86
2021/11/14 06:05:45;;;;;;;82.05;31.48;;;8.90;99.90;;;;;;4766619;29;20048;-85
2021/11/14 06:08:11;;;;;;;85.03;31.88;;;8.90;99.90;;;;;;4784988;29;20515;-84
2021/11/14 06:10:37;;;;;;;78.10;32.08;;;8.90;99.90;;;;;;4772601;29;20054;-85
2021/11/14 06:13:04;;;;;;;72.80;31.55;;;8.90;99.90;;;;;;4765276;29;20123;-86
2021/11/14 06:15:30;;;;;;;76.75;29.92;;;8.90;99.90;;;;;;4778073;29;20138;-84
2021/11/14 06:17:56;;;;;;;73.38;30.00;;;8.80;99.90;;;;;;4793068;29;20089;-86
2021/11/14 06:20:22;;;;;;;76.72;28.73;;;8.80;99.90;;;;;;4772025;29;20039;-85
2021/11/14 06:22:48;;;;;;;70.15;28.85;;;8.80;99.90;;;;;;4779498;29;20084;-85
2021/11/14 06:25:14;;;;;;;64.95;28.73;;;8.80;99.90;;;;;;4787611;29;20042;-85
2021/11/14 06:27:40;;;;;;;64.57;28.20;;;8.80;99.90;;;;;;4756685;29;20496;-85
2021/11/14 06:30:09;;;;;;;71.30;29.25;;;8.80;99.90;;;;;;4754664;29;21034;-87
2021/11/14 06:32:36;;;;;;;70.30;27.67;;;8.80;99.90;;;;;;4785276;29;20282;-85
2021/11/14 06:35:02;;;;;;;64.60;27.52;;;8.80;99.90;;;;;;4773392;29;20091;-85
2021/11/14 06:37:28;;;;;;;67.55;28.63;;;8.80;99.90;;;;;;4784660;29;20122;-85
2021/11/14 06:39:55;;;;;;;62.60;27.00;;;8.80;99.90;;;;;;4781697;29;20043;-85
2021/11/14 06:42:20;;;;;;;67.03;27.52;;;8.80;99.90;;;;;;4766782;29;20050;-86
2021/11/14 06:44:46;;;;;;;69.00;28.00;;;8.80;99.90;;;;;;4789297;29;20051;-85
2021/11/14 06:47:13;;;;;;;68.63;26.55;;;8.80;99.90;;;;;;4757414;29;20046;-86
2021/11/14 06:49:39;;;;;;;67.05;28.17;;;8.80;99.90;;;;;;4762608;29;20539;-86
2021/11/14 06:52:06;;;;;;;65.78;27.85;;;8.80;99.90;;;;;;4770155;29;20446;-85
2021/11/14 06:54:32;;;;;;;70.03;28.83;;;8.80;99.90;;;;;;4798572;29;20441;-86
2021/11/14 06:56:58;;;;;;;70.32;28.10;;;8.80;99.90;;;;;;4779595;29;20050;-87
2021/11/14 06:59:25;;;;;;;66.28;27.13;;;8.70;99.90;;;;;;4780799;29;20235;-85
2021/11/14 07:01:51;;;;;;;69.60;27.42;;;8.80;99.90;;;;;;4756996;29;20429;-84
2021/11/14 07:04:16;;;;;;;70.72;27.88;;;8.70;99.90;;;;;;4774909;29;20057;-85
2021/11/14 07:06:42;;;;;;;63.95;26.50;;;8.70;99.90;;;;;;4767442;29;20042;-85
2021/11/14 07:09:08;;;;;;;61.28;25.50;;;8.70;99.90;;;;;;4769778;29;20041;-87
2021/11/14 07:11:35;;;;;;;59.97;25.90;;;8.70;99.90;;;;;;4779359;29;20047;-85
2021/11/14 07:14:02;;;;;;;60.00;25.75;;;8.80;99.90;;;;;;4760394;29;20639;-85
2021/11/14 07:16:28;;;;;;;61.88;25.48;;;8.70;99.90;;;;;;4778222;29;20657;-86
2021/11/14 07:18:54;;;;;;;59.22;24.17;;;8.70;99.90;;;;;;4768431;29;20085;-87
2021/11/14 07:21:21;;;;;;;61.75;24.80;;;8.70;99.90;;;;;;4762736;29;20135;-86
2021/11/14 07:23:48;;;;;;;65.47;26.17;;;8.70;99.90;;;;;;4767941;29;20081;-86
2021/11/14 07:26:14;;;;;;;66.97;25.52;;;8.70;99.90;;;;;;4769839;29;20577;-85
2021/11/14 07:28:40;;;;;;;66.43;25.50;;;8.70;99.90;;;;;;4793001;29;20039;-86
2021/11/14 07:31:06;;;;;;;68.43;24.73;;;8.70;99.90;;;;;;4764831;29;21700;-86
2021/11/14 07:33:31;;;;;;;59.45;23.77;;;8.70;99.90;;;;;;4750687;29;20038;-86
2021/11/14 07:35:57;;;;;;;72.15;24.17;;;8.70;99.90;;;;;;4760945;29;20042;-85
2021/11/14 07:38:23;;;;;;;61.97;23.25;;;8.60;99.90;;;;;;4766500;29;20510;-86
2021/11/14 07:40:49;;;;;;;59.13;23.60;;;8.70;99.90;;;;;;4765958;29;20133;-84
2021/11/14 07:43:15;;;;;;;57.65;23.70;;;8.60;99.90;;;;;;4775803;29;20289;-87
2021/11/14 07:45:41;;;;;;;58.75;22.83;;;8.70;99.90;;;;;;4769613;29;20042;-85
2021/11/14 07:48:07;;;;;;;53.90;21.55;;;8.70;99.90;;;;;;4793947;29;20066;-87
2021/11/14 07:50:34;;;;;;;65.00;23.25;;;8.60;99.90;;;;;;4777529;29;20444;-85
2021/11/14 07:53:02;;;;;;;64.45;22.35;;;8.70;99.90;;;;;;4772961;29;20514;-86
2021/11/14 07:55:29;;;;;;;68.25;24.08;;;8.70;99.90;;;;;;4786888;29;20102;-83
2021/11/14 07:57:55;;;;;;;66.57;24.05;;;8.60;99.90;;;;;;4792322;29;20522;-86
2021/11/14 08:00:23;;;;;;;66.72;25.90;;;8.70;99.90;;;;;;4768456;29;20050;-86
2021/11/14 08:02:49;;;;;;;67.05;25.88;;;8.70;99.90;;;;;;4782333;29;20046;-87
2021/11/14 08:05:17;;;;;;;65.68;26.77;;;8.70;99.90;;;;;;4784072;29;20099;-84
2021/11/14 08:07:45;;;;;;;56.60;25.42;;;8.70;99.90;;;;;;4773953;29;20051;-85
2021/11/14 08:10:13;;;;;;;61.15;26.65;;;8.70;99.90;;;;;;4801801;29;20061;-87
2021/11/14 08:12:39;;;;;;;68.47;29.13;;;8.70;99.90;;;;;;4784709;29;20074;-86
2021/11/14 08:15:06;;;;;;;64.57;28.35;;;8.70;99.90;;;;;;4783495;29;20071;-84
2021/11/14 08:17:33;;;;;;;67.63;28.33;;;8.70;99.90;;;;;;4786227;29;20049;-86
2021/11/14 08:20:00;;;;;;;65.47;29.73;;;8.70;99.90;;;;;;4782559;29;20034;-87
2021/11/14 08:22:30;;;;;;;75.78;29.02;;;8.70;99.90;;;;;;4766170;29;20137;-87
2021/11/14 08:24:58;;;;;;;71.43;30.35;;;8.80;99.90;;;;;;4769205;29;20042;-85
2021/11/14 08:27:24;;;;;;;68.47;28.95;;;8.70;99.90;;;;;;4762899;29;20049;-86
2021/11/14 08:29:51;;;;;;;63.08;28.40;;;8.80;99.90;;;;;;4770165;29;20521;-88
2021/11/14 08:32:18;;;;;;;60.13;27.55;;;8.80;99.90;;;;;;4772154;29;20050;-85
2021/11/14 08:34:44;;;;;;;66.28;30.10;;;8.80;99.90;;;;;;4748824;29;21419;-84
2021/11/14 08:37:11;;;;;;;68.65;29.90;;;8.80;99.90;;;;;;4753963;29;20066;-86
2021/11/14 08:39:38;;;;;;;67.93;29.25;;;8.80;99.90;;;;;;4755360;29;20951;-86
2021/11/14 08:42:04;;;;;;;70.88;30.25;;;8.80;99.90;;;;;;4754524;29;20557;-87
2021/11/14 08:44:31;;;;;;;65.85;29.15;;;8.80;99.90;;;;;;4775819;29;20051;-84
2021/11/14 08:46:56;;;;;;;68.70;31.23;;;8.90;99.90;;;;;;4777750;29;20074;-86
2021/11/14 08:49:23;;;;;;;64.88;30.48;;;8.90;99.90;;;;;;4757485;29;20042;-85
2021/11/14 08:51:50;;;;;;;65.38;29.98;;;8.90;99.90;;;;;;4747332;29;20084;-85
2021/11/14 08:54:16;;;;;;;68.15;31.52;;;8.90;99.90;;;;;;4770654;29;20074;-86
2021/11/14 08:56:42;;;;;;;64.95;31.52;;;8.90;99.90;;;;;;4750172;29;20042;-86
2021/11/14 08:59:08;;;;;;;65.90;31.80;;;8.90;99.90;;;;;;4762015;29;20082;-86
2021/11/14 09:01:36;;;;;;;65.28;31.10;;;8.90;99.90;;;;;;4784205;29;20054;-85
2021/11/14 09:04:02;;;;;;;67.15;30.92;;;8.90;99.90;;;;;;4783470;29;20566;-86
2021/11/14 09:06:39;;;;;;;64.63;31.00;;;8.90;99.90;;;;;;4785387;29;20513;-86
2021/11/14 09:09:13;;;;;;;66.15;31.40;;;8.90;99.90;;;;;;4792120;29;20192;-86
2021/11/14 09:11:39;;;;;;;;;;;8.90;99.90;;;;;;4781386;29;20045;-86
2021/11/14 09:14:06;;;;;;;72.60;33.00;;;8.90;99.90;;;;;;4777938;29;19928;-85
2021/11/14 09:16:32;;;;;;;72.18;31.90;;;8.90;99.90;;;;;;4784654;29;20486;-87
2021/11/14 09:18:58;;;;;;;66.82;32.17;;;8.90;99.90;;;;;;4784462;29;20042;-86
2021/11/14 09:21:25;;;;;;;75.38;33.60;;;9.00;99.90;;;;;;4785079;29;20118;-87
2021/11/14 09:23:51;;;;;;;69.43;32.25;;;9.00;99.90;;;;;;4770003;29;20057;-86
2021/11/14 09:26:17;;;;;;;67.18;31.50;;;9.00;99.90;;;;;;4777516;29;20077;-85
2021/11/14 09:28:44;;;;;;;67.00;32.20;;;9.00;99.90;;;;;;4785918;29;20129;-85
2021/11/14 09:31:11;;;;;;;63.20;30.60;;;9.00;99.90;;;;;;4795033;29;20057;-85
2021/11/14 09:33:39;;;;;;;67.38;32.65;;;9.00;99.90;;;;;;4780821;29;20050;-85
2021/11/14 09:36:05;;;;;;;67.57;32.63;;;9.00;99.90;;;;;;4790967;29;20038;-85
2021/11/14 09:38:33;;;;;;;66.45;32.08;;;9.10;99.90;;;;;;4775733;29;20047;-87
2021/11/14 09:41:00;;;;;;;64.75;32.22;;;9.00;99.90;;;;;;4779612;29;20068;-86
2021/11/14 09:43:28;;;;;;;68.55;33.60;;;9.00;99.90;;;;;;4773535;29;20058;-87
2021/11/14 09:45:55;;;;;;;66.85;32.05;;;9.10;99.90;;;;;;4764344;29;20335;-86
2021/11/14 09:48:21;;;;;;;58.30;30.50;;;9.10;99.90;;;;;;4751846;29;20050;-85
2021/11/14 09:50:50;;;;;;;59.08;30.30;;;9.10;99.90;;;;;;4781294;29;20047;-85
2021/11/14 09:53:16;;;;;;;57.83;30.20;;;9.10;99.90;;;;;;4776259;29;20556;-85
2021/11/14 09:55:42;;;;;;;54.22;28.38;;;9.10;99.90;;;;;;4778116;29;20153;-87
2021/11/14 09:58:08;;;;;;;58.50;29.48;;;9.10;99.90;;;;;;4761176;29;20047;-87
2021/11/14 10:00:38;;;;;;;61.08;29.92;;;9.10;99.90;;;;;;4791056;29;20113;-85
2021/11/14 10:03:05;;;;;;;58.10;32.03;;;9.10;99.90;;;;;;4789644;29;20497;-87
2021/11/14 10:05:32;;;;;;;61.40;31.95;;;9.10;99.90;;;;;;4776035;29;20165;-87
2021/11/14 10:08:05;;;;;;;62.80;32.17;;;9.10;99.90;;;;;;4789847;29;20241;-84
2021/11/14 10:10:39;;;;;;;67.93;32.78;;;9.10;99.90;;;;;;4784901;29;20518;-87
2021/11/14 10:13:29;;;;;;;68.38;31.65;;;9.10;99.90;;;;;;4785006;29;20049;-85
2021/11/14 10:16:11;;;;;;;63.00;30.58;;;9.10;99.90;;;;;;4793171;29;20058;-86
2021/11/14 10:19:08;;;;;;;62.63;30.40;;;9.10;99.90;;;;;;4794663;29;20085;-88
2021/11/14 10:21:35;;;;;;;63.60;32.25;;;9.20;99.90;;;;;;4775200;29;20085;-87
2021/11/14 10:24:06;;;;;;;66.05;32.50;;;9.20;99.90;;;;;;4787676;29;20049;-86
2021/11/14 10:26:32;;;;;;;64.03;30.58;;;9.20;99.90;;;;;;4775698;29;20553;-86
2021/11/14 10:29:01;;;;;;;66.13;33.13;;;9.20;99.90;;;;;;4769207;29;20074;-88
2021/11/14 10:31:28;;;;;;;65.20;31.65;;;9.20;99.90;;;;;;4784630;29;20117;-89
2021/11/14 10:33:55;;;;;;;68.18;32.20;;;9.30;99.90;;;;;;4768590;29;20039;-89
2021/11/14 10:36:23;;;;;;;65.68;33.50;;;9.30;99.90;;;;;;4762455;29;20106;-86
2021/11/14 10:38:49;;;;;;;75.10;35.22;;;9.30;99.90;;;;;;4775036;29;20126;-86
2021/11/14 10:41:17;;;;;;;80.13;37.72;;;9.30;99.90;;;;;;4783640;29;20049;-85
2021/11/14 10:43:44;;;;;;;74.13;35.80;;;9.30;99.90;;;;;;4768400;29;20203;-85
2021/11/14 10:46:20;;;;;;;85.10;38.03;;;9.30;99.90;;;;;;4749664;29;20034;-88
2021/11/14 10:48:47;;;;;;;70.80;34.38;;;9.30;99.90;;;;;;4776675;29;20684;-87
2021/11/14 10:51:13;;;;;;;71.35;35.85;;;9.30;99.90;;;;;;4777445;29;20077;-87
2021/11/14 10:53:41;;;;;;;76.43;35.72;;;9.30;99.90;;;;;;4761047;29;20070;-89
2021/11/14 10:56:11;;;;;;;71.07;35.55;;;9.30;99.90;;;;;;4770223;29;20140;-87
2021/11/14 10:58:40;;;;;;;79.07;36.70;;;9.30;99.90;;;;;;4771739;29;20053;-87
2021/11/14 11:01:11;;;;;;;68.90;34.60;;;9.30;99.90;;;;;;4762655;29;20039;-86
2021/11/14 11:03:47;;;;;;;74.70;34.53;;;9.30;99.90;;;;;;4788427;29;20149;-88
2021/11/14 11:06:19;;;;;;;70.43;34.85;;;9.30;99.90;;;;;;4783465;29;20042;-90
2021/11/14 11:08:46;;;;;;;74.20;36.50;;;9.30;99.90;;;;;;4768769;29;20050;-87
2021/11/14 11:11:13;;;;;;;74.72;36.80;;;9.40;99.90;;;;;;4772377;29;20150;-87
2021/11/14 11:13:44;;;;;;;75.60;36.03;;;9.40;99.90;;;;;;4764330;29;20042;-87
2021/11/14 11:16:15;;;;;;;72.68;35.42;;;9.40;99.90;;;;;;4774317;29;20246;-86
2021/11/14 11:18:46;;;;;;;78.15;38.38;;;9.40;99.90;;;;;;4786115;29;20055;-86
2021/11/14 11:21:14;;;;;;;84.18;37.45;;;9.40;99.90;;;;;;4764351;29;20069;-89
2021/11/14 11:23:45;;;;;;;81.72;36.95;;;9.40;99.90;;;;;;4775398;29;20074;-86
2021/11/14 11:26:13;;;;;;;78.50;36.58;;;9.40;99.90;;;;;;4763395;29;20050;-85
2021/11/14 11:28:43;;;;;;;86.60;38.90;;;9.40;99.90;;;;;;4766709;29;20084;-87
2021/11/14 11:31:15;;;;;;;83.20;38.40;;;9.40;99.90;;;;;;4774948;29;20050;-87
2021/11/14 11:33:43;;;;;;;87.85;39.33;;;9.40;99.90;;;;;;4799435;29;20042;-88
2021/11/14 11:36:11;;;;;;;86.70;38.70;;;9.40;99.90;;;;;;4780208;29;20060;-88
2021/11/14 11:38:42;;;;;;;84.85;38.78;;;9.40;99.90;;;;;;4776815;29;20053;-86
2021/11/14 11:41:09;;;;;;;81.13;38.38;;;9.40;99.90;;;;;;4793871;29;20034;-87
2021/11/14 11:43:36;;;;;;;77.78;37.42;;;9.40;99.90;;;;;;4770908;29;20095;-86
2021/11/14 11:46:11;;;;;;;80.63;39.22;;;9.40;99.90;;;;;;4780271;29;20074;-86
2021/11/14 11:48:41;;;;;;;83.68;38.42;;;9.40;99.90;;;;;;4785653;29;20129;-87
2021/11/14 11:51:25;;;;;;;83.18;38.95;;;9.40;99.90;;;;;;4788843;29;20403;-88
2021/11/14 11:54:25;;;;;;;88.50;40.90;;;9.40;99.90;;;;;;4774222;29;20087;-87
2021/11/14 11:57:01;;;;;;;84.85;38.38;;;9.40;99.90;;;;;;4777425;29;20054;-86
2021/11/14 11:59:28;;;;;;;95.55;41.22;;;9.40;99.90;;;;;;4778072;29;20058;-87
2021/11/14 12:02:00;;;;;;;79.25;38.75;;;9.40;99.90;;;;;;4784060;29;20173;-86
2021/11/14 12:04:40;;;;;;;84.13;38.35;;;9.40;99.90;;;;;;4783754;29;21329;-89
2021/11/14 12:07:13;;;;;;;80.45;37.72;;;9.40;99.90;;;;;;4781149;29;20042;-85
2021/11/14 12:09:48;;;;;;;79.53;36.65;;;9.40;99.90;;;;;;4783083;29;20509;-89
2021/11/14 12:12:50;;;;;;;87.07;37.72;;;9.40;99.90;;;;;;4779622;29;20050;-86
2021/11/14 12:15:37;;;;;;;75.65;34.83;;;9.40;99.90;;;;;;4788984;29;20070;-86
2021/11/14 12:18:11;;;;;;;77.82;35.70;;;9.40;99.90;;;;;;4779155;29;20916;-87
2021/11/14 12:20:49;;;;;;;71.65;33.35;;;9.40;99.90;;;;;;4793827;29;20058;-88
2021/11/14 12:23:20;;;;;;;71.60;34.25;;;9.40;99.90;;;;;;4791832;29;20321;-86
2021/11/14 12:25:48;;;;;;;77.18;35.00;;;9.40;99.90;;;;;;4781011;29;20053;-87
2021/11/14 12:28:19;;;;;;;70.13;34.60;;;9.40;99.90;;;;;;4782214;29;20077;-87
2021/11/14 12:33:30;;;;;;;75.03;34.43;;;9.50;99.90;;;;;;4791144;29;20042;-86
2021/11/14 12:36:09;;;;;;;70.93;34.22;;;9.40;99.90;;;;;;4780018;29;20343;-86
2021/11/14 12:38:36;;;;;;;69.97;33.33;;;9.50;99.90;;;;;;4783728;29;20380;-87
2021/11/14 12:41:08;;;;;;;72.30;34.42;;;9.50;99.90;;;;;;4793124;29;20129;-87
2021/11/14 12:43:43;;;;;;;75.70;34.53;;;9.50;99.90;;;;;;4779442;29;20048;-88
2021/11/14 12:46:24;;;;;;;65.70;32.47;;;9.50;99.90;;;;;;4787830;29;20161;-87
2021/11/14 12:48:50;;;;;;;76.38;34.97;;;9.50;99.90;;;;;;4779829;29;20043;-85
2021/11/14 12:51:27;;;;;;;63.08;32.10;;;9.50;99.90;;;;;;4770441;29;20047;-85
2021/11/14 12:54:23;;;;;;;68.13;32.25;;;9.50;99.90;;;;;;4785434;29;20326;-87
2021/11/14 12:56:50;;;;;;;70.75;33.47;;;9.50;99.90;;;;;;4780613;29;20053;-86
2021/11/14 12:59:24;;;;;;;67.93;34.05;;;9.50;99.90;;;;;;4765789;29;20046;-87
2021/11/14 13:02:00;;;;;;;70.18;32.63;;;9.50;99.90;;;;;;4785446;29;20096;-87
2021/11/14 13:04:27;;;;;;;66.90;33.20;;;9.60;99.90;;;;;;4788403;29;20372;-87